KVIH/VIH METAR and TAF weather

Enter ICAO airport designator
Station Type Date Time Source
KVIH METAR 2020/01/27 13:53 UTC NOAA

KVIH 271353Z AUTO 00000KT M1/4SM FZFG VV001 M02/M03 A2998 RMK AO2 SLP163 I1001 T10171033


Station Type Date Time Source
KVIH Decoded METAR 2020/01/27 13:53 UTC NOAA

ROLLA/VICHY ROLLA NATIONAL, MO, United States (KVIH) 38-08N 91-46W 333M
Jan 27, 2020 - 08:53 AM EST / 2020.01.27 1353 UTC
Wind: Calm:0
Visibility: less than 1/4 mile(s):1
Sky conditions: obscured
Weather: freezing fog
Temperature: 28.9 F (-1.7 C)
Dew Point: 26.1 F (-3.3 C)
Relative Humidity: 88%
Pressure (altimeter): 29.98 in. Hg (1015 hPa)
ob: KVIH 271353Z AUTO 00000KT M1/4SM FZFG VV001 M02/M03 A2998 RMK AO2 SLP163 I1001 T10171033
cycle: 14

Station Type Date Time Source
KVIH TAF UTC NOAA

Error!

Example: see airport list